createdAt,value
2019-04-03T00:01:15.181Z,29.98
2019-04-03T00:03:43.807Z,31.25
2019-04-03T00:06:12.305Z,29.80
2019-04-03T00:08:40.822Z,34.03
2019-04-03T00:11:10.609Z,31.05
2019-04-03T00:13:41.566Z,35.13
2019-04-03T00:16:09.889Z,33.10
2019-04-03T00:18:38.440Z,37.23
2019-04-03T00:21:07.158Z,33.45
2019-04-03T00:23:35.794Z,38.58
2019-04-03T00:26:04.385Z,33.35
2019-04-03T00:28:32.908Z,37.48
2019-04-03T00:31:01.393Z,34.85
2019-04-03T00:33:30.013Z,34.30
2019-04-03T00:35:58.521Z,43.23
2019-04-03T00:38:27.033Z,40.55
2019-04-03T00:40:55.784Z,38.08
2019-04-03T00:43:25.072Z,38.98
2019-04-03T00:45:54.539Z,36.53
2019-04-03T00:48:25.826Z,38.92
2019-04-03T00:50:56.377Z,40.10
2019-04-03T00:53:25.978Z,41.73
2019-04-03T00:55:56.433Z,37.15
2019-04-03T00:58:36.209Z,41.20
2019-04-03T01:01:09.692Z,38.48
2019-04-03T01:03:38.766Z,36.45
2019-04-03T01:06:07.670Z,30.05
2019-04-03T01:08:36.372Z,20.15
2019-04-03T01:11:05.066Z,25.90
2019-04-03T01:13:33.775Z,24.10
2019-04-03T01:16:03.025Z,21.07
2019-04-03T01:18:34.362Z,25.05
2019-04-03T01:21:02.048Z,20.40
2019-04-03T01:23:30.585Z,23.18
2019-04-03T01:25:59.203Z,22.85
2019-04-03T01:28:27.932Z,23.75
2019-04-03T01:30:56.453Z,22.85
2019-04-03T01:33:25.161Z,24.15
2019-04-03T01:35:53.887Z,19.77
2019-04-03T01:38:22.395Z,20.20
2019-04-03T01:40:51.232Z,18.02
2019-04-03T01:43:19.830Z,14.83
2019-04-03T01:45:48.444Z,15.28
2019-04-03T01:48:17.035Z,15.35
2019-04-03T01:50:45.680Z,13.05
2019-04-03T01:53:14.197Z,10.05
2019-04-03T01:55:42.900Z,14.00
2019-04-03T01:58:11.575Z,13.85
2019-04-03T02:00:40.102Z,13.43
2019-04-03T02:03:10.248Z,14.15
2019-04-03T02:05:39.197Z,11.50
2019-04-03T02:08:07.702Z,12.05
2019-04-03T02:10:36.443Z,11.35
2019-04-03T02:13:05.143Z,10.98
2019-04-03T02:15:33.745Z,8.53
2019-04-03T02:18:02.578Z,7.47
2019-04-03T02:20:31.092Z,7.30
2019-04-03T02:23:00.524Z,7.72
2019-04-03T02:25:31.336Z,6.75
2019-04-03T02:28:00.208Z,11.48
2019-04-03T02:30:28.829Z,5.92
2019-04-03T02:32:57.624Z,7.30
2019-04-03T02:35:26.462Z,5.90
2019-04-03T02:37:54.953Z,8.35
2019-04-03T02:40:23.479Z,6.65
2019-04-03T02:42:52.395Z,9.98
2019-04-03T02:45:24.009Z,9.18
2019-04-03T02:47:51.548Z,8.05
2019-04-03T02:50:23.516Z,7.72
2019-04-03T02:52:56.890Z,13.38
2019-04-03T02:55:23.553Z,8.20
2019-04-03T02:57:52.490Z,9.88
2019-04-03T03:00:21.103Z,12.15
2019-04-03T03:02:49.807Z,9.13
2019-04-03T03:05:18.807Z,11.05
2019-04-03T03:07:47.491Z,10.32
2019-04-03T03:10:19.320Z,9.95
2019-04-03T03:12:46.975Z,9.98
2019-04-03T03:15:15.710Z,10.58
2019-04-03T03:17:44.620Z,9.80
2019-04-03T03:20:15.402Z,11.18
2019-04-03T03:22:44.331Z,12.43
2019-04-03T03:25:13.058Z,9.53
2019-04-03T03:27:42.745Z,11.43
2019-04-03T03:30:34.292Z,11.45
2019-04-03T03:32:43.148Z,13.58
2019-04-03T03:35:16.806Z,9.53
2019-04-03T03:37:43.964Z,16.30
2019-04-03T03:40:15.149Z,11.30
2019-04-03T03:42:43.353Z,11.30
2019-04-03T03:45:12.155Z,13.95
2019-04-03T03:47:41.159Z,16.55
2019-04-03T03:50:09.976Z,14.65
2019-04-03T03:52:39.195Z,14.65
2019-04-03T03:55:08.407Z,12.43
2019-04-03T03:57:40.187Z,11.63
2019-04-03T04:00:09.557Z,11.70
2019-04-03T04:02:42.747Z,10.93
2019-04-03T04:05:10.809Z,10.65
2019-04-03T04:07:39.231Z,11.65
2019-04-03T04:10:08.680Z,12.55
2019-04-03T04:12:40.933Z,12.98
2019-04-03T04:15:08.566Z,12.93
2019-04-03T04:17:37.290Z,13.25
2019-04-03T04:20:06.371Z,14.58
2019-04-03T04:22:36.449Z,14.45
2019-04-03T04:25:05.645Z,14.30
2019-04-03T04:27:37.854Z,14.35
2019-04-03T04:30:05.761Z,16.73
2019-04-03T04:32:34.456Z,14.53
2019-04-03T04:35:03.686Z,16.70
2019-04-03T04:37:32.344Z,18.15
2019-04-03T04:40:00.989Z,19.20
2019-04-03T04:42:29.710Z,15.32
2019-04-03T04:44:58.342Z,18.12
2019-04-03T04:47:26.844Z,16.93
2019-04-03T04:49:55.336Z,19.98
2019-04-03T04:52:23.842Z,23.05
2019-04-03T04:54:52.325Z,19.45
2019-04-03T04:57:20.831Z,25.92
2019-04-03T04:59:49.360Z,19.87
2019-04-03T05:02:19.747Z,23.35
2019-04-03T05:04:48.310Z,20.17
2019-04-03T05:07:17.443Z,18.32
2019-04-03T05:09:46.008Z,21.97
2019-04-03T05:12:14.501Z,19.57
2019-04-03T05:14:43.033Z,17.62
2019-04-03T05:17:11.662Z,19.20
2019-04-03T05:19:40.160Z,20.27
2019-04-03T05:22:08.745Z,19.45
2019-04-03T05:24:37.384Z,17.67
2019-04-03T05:27:07.923Z,17.82
2019-04-03T05:29:36.546Z,17.95
2019-04-03T05:32:05.444Z,19.30
2019-04-03T05:34:34.004Z,16.80
2019-04-03T05:37:02.969Z,17.87
2019-04-03T05:39:33.057Z,20.62
2019-04-03T05:42:01.568Z,19.20
2019-04-03T05:44:32.912Z,18.05
2019-04-03T05:47:00.634Z,15.28
2019-04-03T05:49:29.610Z,20.70
2019-04-03T05:51:58.242Z,22.93
2019-04-03T05:54:26.780Z,21.50
2019-04-03T05:56:55.399Z,19.52
2019-04-03T05:59:24.176Z,25.85
2019-04-03T06:01:52.867Z,19.50
2019-04-03T06:04:21.403Z,19.42
2019-04-03T06:06:49.845Z,15.93
2019-04-03T06:09:18.340Z,18.95
2019-04-03T06:11:46.852Z,17.15
2019-04-03T06:14:16.816Z,20.62
2019-04-03T06:16:46.103Z,17.77
2019-04-03T06:19:14.576Z,18.87
2019-04-03T06:21:45.722Z,21.07
2019-04-03T06:24:13.569Z,22.05
2019-04-03T06:26:44.113Z,25.50
2019-04-03T06:29:12.836Z,26.07
2019-04-03T06:31:41.334Z,17.60
2019-04-03T06:34:09.817Z,18.98
2019-04-03T06:36:38.342Z,23.47
2019-04-03T06:39:07.864Z,22.17
2019-04-03T06:41:36.365Z,21.55
2019-04-03T06:44:05.140Z,22.70
2019-04-03T06:46:33.694Z,17.85
2019-04-03T06:49:02.441Z,19.40
2019-04-03T06:51:31.130Z,17.40
2019-04-03T06:53:59.984Z,17.87
2019-04-03T06:56:28.631Z,20.62
2019-04-03T06:58:57.161Z,21.68
2019-04-03T07:01:25.679Z,18.82
2019-04-03T07:03:54.191Z,22.48
2019-04-03T07:06:23.102Z,19.10
2019-04-03T07:08:51.587Z,23.05
2019-04-03T07:11:23.749Z,18.55
2019-04-03T07:13:53.222Z,21.97
2019-04-03T07:16:21.152Z,22.42
2019-04-03T07:18:49.657Z,23.40
2019-04-03T07:21:18.423Z,22.20
2019-04-03T07:23:47.104Z,28.85
2019-04-03T07:26:15.608Z,25.30
2019-04-03T07:28:44.127Z,32.20
2019-04-03T07:31:12.631Z,22.60
2019-04-03T07:33:41.220Z,20.62
2019-04-03T07:36:11.325Z,23.35
2019-04-03T07:38:40.139Z,22.58
2019-04-03T07:41:08.764Z,25.40
2019-04-03T07:43:37.282Z,25.45
2019-04-03T07:46:05.801Z,21.00
2019-04-03T07:48:35.813Z,18.55
2019-04-03T07:51:05.262Z,23.30
2019-04-03T07:53:33.712Z,21.20
2019-04-03T07:56:02.221Z,17.15
2019-04-03T07:58:32.088Z,21.77
2019-04-03T08:01:01.236Z,21.48
2019-04-03T08:03:29.967Z,16.15
2019-04-03T08:05:58.710Z,23.70
2019-04-03T08:08:27.561Z,24.23
2019-04-03T08:10:56.495Z,20.68
2019-04-03T08:13:25.178Z,21.37
2019-04-03T08:15:53.775Z,17.87
2019-04-03T08:18:22.362Z,13.88
2019-04-03T08:20:51.097Z,15.60
2019-04-03T08:23:19.869Z,16.62
2019-04-03T08:25:49.166Z,20.15
2019-04-03T08:28:17.943Z,18.15
2019-04-03T08:30:46.835Z,18.60
2019-04-03T08:33:18.278Z,20.77
2019-04-03T08:35:45.804Z,20.95
2019-04-03T08:38:14.388Z,17.45
2019-04-03T08:40:43.007Z,20.27
2019-04-03T08:43:11.871Z,18.90
2019-04-03T08:45:40.655Z,20.27
2019-04-03T08:48:09.160Z,17.55
2019-04-03T08:50:37.932Z,17.00
2019-04-03T08:53:08.628Z,18.95
2019-04-03T08:55:37.316Z,20.17
2019-04-03T08:58:05.845Z,16.15
2019-04-03T09:00:34.452Z,23.38
2019-04-03T09:03:04.074Z,18.50
2019-04-03T09:05:33.245Z,21.95
2019-04-03T09:08:01.988Z,20.70
2019-04-03T09:10:32.673Z,18.52
2019-04-03T09:13:01.700Z,21.05
2019-04-03T09:15:31.612Z,17.62
2019-04-03T09:18:00.111Z,18.73
2019-04-03T09:20:28.985Z,17.70
2019-04-03T09:22:57.603Z,17.10
2019-04-03T09:25:26.113Z,14.38
2019-04-03T09:27:55.023Z,17.98
2019-04-03T09:30:24.452Z,15.80
2019-04-03T09:32:53.982Z,19.85
2019-04-03T09:35:23.324Z,18.25
2019-04-03T09:37:52.245Z,19.23
2019-04-03T09:40:20.858Z,21.85
2019-04-03T09:42:51.255Z,20.72
2019-04-03T09:45:20.265Z,17.62
2019-04-03T09:47:49.053Z,17.85
2019-04-03T09:50:17.952Z,21.15
2019-04-03T09:52:49.634Z,19.92
2019-04-03T09:55:17.507Z,15.85
2019-04-03T09:57:46.139Z,18.92
2019-04-03T10:00:16.756Z,20.50
2019-04-03T10:02:45.421Z,23.40
2019-04-03T10:05:14.537Z,21.05
2019-04-03T10:07:43.139Z,19.27
2019-04-03T10:10:14.013Z,17.30
2019-04-03T10:12:47.569Z,22.25
2019-04-03T10:15:17.644Z,18.27
2019-04-03T10:17:45.502Z,18.32
2019-04-03T10:20:15.092Z,20.00
2019-04-03T10:22:45.263Z,15.48
2019-04-03T10:25:14.080Z,21.40
2019-04-03T10:27:43.624Z,15.95
2019-04-03T10:30:13.394Z,16.87
2019-04-03T10:32:41.896Z,21.20
2019-04-03T10:35:10.805Z,17.85
2019-04-03T10:37:39.431Z,18.85
2019-04-03T10:40:09.075Z,19.23
2019-04-03T10:42:38.089Z,17.73
2019-04-03T10:45:09.225Z,15.18
2019-04-03T10:47:43.091Z,19.62
2019-04-03T10:50:08.869Z,19.52
2019-04-03T10:52:37.376Z,17.85
2019-04-03T10:55:06.474Z,15.38
2019-04-03T10:57:35.551Z,14.93
2019-04-03T11:00:06.047Z,19.27
2019-04-03T11:02:34.736Z,16.80
2019-04-03T11:05:05.498Z,16.02
2019-04-03T11:07:34.092Z,18.05
2019-04-03T11:10:04.307Z,19.87
2019-04-03T11:12:33.300Z,18.85
2019-04-03T11:15:02.700Z,15.05
2019-04-03T11:17:31.349Z,14.45
2019-04-03T11:19:59.959Z,14.68
2019-04-03T11:22:39.731Z,17.20
2019-04-03T11:24:58.878Z,16.73
2019-04-03T11:27:40.725Z,16.85
2019-04-03T11:29:58.182Z,14.78
2019-04-03T11:32:26.776Z,15.60
2019-04-03T11:34:56.353Z,13.85
2019-04-03T11:37:26.296Z,16.77
2019-04-03T11:40:02.482Z,19.55
2019-04-03T11:42:29.196Z,15.50
2019-04-03T11:44:55.797Z,16.45
2019-04-03T11:47:24.613Z,13.22
2019-04-03T11:49:53.300Z,13.62
2019-04-03T11:52:21.952Z,10.85
2019-04-03T11:54:52.809Z,10.90
2019-04-03T11:57:20.966Z,9.70
2019-04-03T11:59:49.673Z,10.48
2019-04-03T12:02:18.875Z,10.63
2019-04-03T12:04:47.563Z,12.60
2019-04-03T12:07:16.271Z,10.25
2019-04-03T12:09:44.995Z,10.05
2019-04-03T12:12:13.612Z,9.18
2019-04-03T12:14:42.345Z,10.28
2019-04-03T12:17:11.035Z,11.75
2019-04-03T12:19:39.566Z,11.60
2019-04-03T12:22:08.059Z,9.13
2019-04-03T12:24:36.565Z,7.50
2019-04-03T12:27:05.691Z,7.62
2019-04-03T12:29:34.276Z,5.30
2019-04-03T12:32:03.945Z,4.83
2019-04-03T12:34:32.573Z,5.62
2019-04-03T12:37:01.344Z,3.00
2019-04-03T12:39:29.945Z,3.65
2019-04-03T12:41:58.659Z,7.40
2019-04-03T12:44:27.673Z,3.85
2019-04-03T12:46:56.209Z,3.95
2019-04-03T12:49:24.832Z,4.10
2019-04-03T12:51:53.583Z,4.00
2019-04-03T12:54:22.260Z,2.67
2019-04-03T12:56:50.757Z,4.92
2019-04-03T12:59:20.436Z,5.17
2019-04-03T13:01:50.644Z,6.17
2019-04-03T13:04:19.709Z,4.95
2019-04-03T13:06:48.252Z,5.67
2019-04-03T13:09:17.413Z,6.55
2019-04-03T13:11:46.439Z,8.08
2019-04-03T13:14:24.252Z,7.37
2019-04-03T13:16:47.124Z,9.13
2019-04-03T13:19:16.207Z,9.70
2019-04-03T13:21:44.887Z,12.60
2019-04-03T13:24:15.978Z,9.00
2019-04-03T13:26:43.909Z,13.32
2019-04-03T13:29:12.399Z,11.33
2019-04-03T13:31:41.167Z,10.78
2019-04-03T13:34:11.190Z,13.28
2019-04-03T13:36:40.128Z,13.95
2019-04-03T13:39:09.183Z,17.02
2019-04-03T13:41:37.861Z,15.05
2019-04-03T13:44:06.584Z,18.25
2019-04-03T13:46:36.575Z,17.57
2019-04-03T13:49:05.954Z,14.80
2019-04-03T13:51:34.557Z,16.17
2019-04-03T13:54:06.530Z,16.15
2019-04-03T13:56:33.993Z,15.03
2019-04-03T13:59:02.700Z,19.95
2019-04-03T14:01:31.599Z,15.32
2019-04-03T14:04:00.454Z,15.10
2019-04-03T14:06:29.085Z,20.48
2019-04-03T14:08:57.619Z,15.55
2019-04-03T14:11:26.585Z,14.73
2019-04-03T14:13:55.221Z,14.60
2019-04-03T14:16:23.782Z,13.65
2019-04-03T14:18:52.228Z,16.23
2019-04-03T14:21:21.067Z,12.33
2019-04-03T14:23:49.767Z,14.15
2019-04-03T14:26:18.325Z,15.85
2019-04-03T14:28:46.847Z,17.52
2019-04-03T14:31:17.492Z,15.00
2019-04-03T14:33:46.985Z,14.53
2019-04-03T14:36:18.485Z,13.28
2019-04-03T14:38:46.957Z,12.82
2019-04-03T14:41:18.587Z,12.95
2019-04-03T14:43:46.298Z,11.93
2019-04-03T14:46:17.303Z,13.25
2019-04-03T14:48:45.225Z,13.78
2019-04-03T14:51:13.885Z,10.68
2019-04-03T14:53:42.390Z,8.23
2019-04-03T14:56:11.041Z,9.68
2019-04-03T14:58:39.559Z,10.50
2019-04-03T15:01:08.064Z,10.28
2019-04-03T15:03:37.111Z,8.78
2019-04-03T15:06:06.166Z,8.23
2019-04-03T15:08:34.686Z,18.75
2019-04-03T15:11:03.849Z,9.73
2019-04-03T15:13:32.416Z,10.03
2019-04-03T15:16:01.245Z,8.85
2019-04-03T15:18:30.225Z,8.95
2019-04-03T15:20:58.733Z,9.60
2019-04-03T15:23:27.238Z,11.55
2019-04-03T15:25:55.839Z,10.20
2019-04-03T15:28:24.379Z,8.13
2019-04-03T15:30:52.860Z,8.38
2019-04-03T15:33:24.330Z,7.80
2019-04-03T15:35:51.987Z,8.18
2019-04-03T15:38:20.977Z,10.05
2019-04-03T15:40:50.011Z,9.55
2019-04-03T15:43:19.081Z,12.25
2019-04-03T15:45:47.726Z,10.45
2019-04-03T15:48:16.477Z,10.15
2019-04-03T15:50:45.425Z,10.05
2019-04-03T15:53:13.997Z,9.98
2019-04-03T15:55:42.526Z,11.10
2019-04-03T15:58:11.020Z,9.90
2019-04-03T16:00:42.619Z,12.93
2019-04-03T16:03:10.627Z,8.80
2019-04-03T16:05:39.617Z,6.65
2019-04-03T16:08:10.020Z,8.00
2019-04-03T16:10:38.771Z,7.03
2019-04-03T16:13:07.266Z,8.15
2019-04-03T16:15:35.791Z,10.72
2019-04-03T16:18:07.031Z,8.15
2019-04-03T16:20:34.992Z,10.72
2019-04-03T16:23:04.388Z,7.62
2019-04-03T16:25:33.514Z,5.40
2019-04-03T16:28:02.647Z,5.85
2019-04-03T16:30:31.319Z,5.70
2019-04-03T16:33:03.474Z,5.85
2019-04-03T16:35:30.240Z,7.83
2019-04-03T16:37:59.124Z,8.25
2019-04-03T16:40:27.654Z,7.75
2019-04-03T16:42:56.597Z,8.35
2019-04-03T16:45:25.548Z,6.37
2019-04-03T16:47:54.321Z,5.83
2019-04-03T16:50:26.221Z,7.83
2019-04-03T16:52:53.239Z,8.15
2019-04-03T16:55:21.783Z,6.67
2019-04-03T16:57:53.120Z,5.50
2019-04-03T17:00:21.076Z,7.42
2019-04-03T17:02:49.669Z,5.22
2019-04-03T17:05:18.495Z,6.83
2019-04-03T17:07:47.364Z,6.37
2019-04-03T17:10:16.220Z,6.55
2019-04-03T17:12:45.683Z,7.70
2019-04-03T17:15:15.492Z,8.43
2019-04-03T17:17:45.674Z,9.53
2019-04-03T17:20:14.979Z,9.70
2019-04-03T17:22:45.490Z,14.70
2019-04-03T17:25:14.264Z,9.35
2019-04-03T17:27:54.070Z,10.68
2019-04-03T17:30:17.624Z,13.28
2019-04-03T17:32:46.167Z,12.47
2019-04-03T17:35:15.696Z,12.90
2019-04-03T17:37:45.088Z,10.15
2019-04-03T17:40:14.194Z,11.25
2019-04-03T17:42:42.816Z,5.90
2019-04-03T17:45:11.618Z,7.47
2019-04-03T17:47:40.198Z,8.80
2019-04-03T17:50:13.615Z,8.35
2019-04-03T17:52:42.364Z,11.90
2019-04-03T17:55:11.408Z,15.90
2019-04-03T17:57:40.115Z,10.68
2019-04-03T18:00:10.804Z,13.35
2019-04-03T18:02:39.460Z,12.73
2019-04-03T18:05:09.151Z,14.20
2019-04-03T18:07:38.226Z,13.60
2019-04-03T18:10:08.488Z,17.87
2019-04-03T18:12:37.579Z,11.60
2019-04-03T18:15:07.292Z,9.90
2019-04-03T18:17:36.070Z,9.10
2019-04-03T18:20:05.798Z,10.88
2019-04-03T18:22:34.359Z,9.73
2019-04-03T18:25:03.383Z,8.50
2019-04-03T18:27:33.410Z,5.75
2019-04-03T18:30:05.799Z,8.73
2019-04-03T18:32:34.400Z,4.37
2019-04-03T18:35:03.651Z,4.67
2019-04-03T18:37:32.673Z,3.05
2019-04-03T18:40:04.069Z,3.90
2019-04-03T18:42:32.696Z,7.00
2019-04-03T18:45:01.199Z,5.72
2019-04-03T18:47:40.559Z,5.08
2019-04-03T18:50:02.887Z,4.45
2019-04-03T18:52:31.185Z,4.03
2019-04-03T18:54:59.851Z,6.15
2019-04-03T18:57:28.542Z,6.97
2019-04-03T19:00:00.381Z,7.00
2019-04-03T19:02:27.645Z,5.45
2019-04-03T19:05:02.307Z,7.72
2019-04-03T19:07:26.812Z,5.90
2019-04-03T19:10:06.375Z,9.70
2019-04-03T19:12:35.508Z,6.33
2019-04-03T19:14:56.284Z,4.75
2019-04-03T19:17:25.452Z,6.83
2019-04-03T19:20:04.013Z,5.37
2019-04-03T19:22:25.671Z,8.03
2019-04-03T19:24:54.967Z,7.60
2019-04-03T19:27:23.472Z,5.25
2019-04-03T19:29:52.076Z,6.10
2019-04-03T19:32:20.744Z,9.28
2019-04-03T19:34:51.912Z,6.33
2019-04-03T19:37:19.879Z,5.70
2019-04-03T19:39:48.407Z,9.13
2019-04-03T19:42:17.040Z,8.65
2019-04-03T19:44:47.101Z,9.50
2019-04-03T19:47:16.150Z,8.83
2019-04-03T19:49:44.655Z,7.70
2019-04-03T19:52:13.255Z,8.43
2019-04-03T19:54:41.777Z,6.50
2019-04-03T19:57:10.348Z,8.38
2019-04-03T19:59:39.065Z,6.60
2019-04-03T20:02:09.296Z,10.45
2019-04-03T20:04:38.450Z,9.55
2019-04-03T20:07:07.353Z,9.23
2019-04-03T20:09:36.042Z,8.18
2019-04-03T20:12:06.793Z,7.28
2019-04-03T20:14:35.198Z,8.58
2019-04-03T20:17:03.754Z,9.23
2019-04-03T20:19:32.270Z,6.50
2019-04-03T20:22:00.824Z,14.03
2019-04-03T20:24:29.627Z,7.62
2019-04-03T20:26:58.272Z,10.50
2019-04-03T20:29:27.814Z,7.25
2019-04-03T20:31:57.412Z,7.58
2019-04-03T20:34:26.069Z,8.90
2019-04-03T20:36:55.046Z,10.55
2019-04-03T20:39:23.641Z,9.63
2019-04-03T20:41:52.271Z,12.58
2019-04-03T20:44:20.772Z,10.32
2019-04-03T20:46:49.307Z,9.85
2019-04-03T20:49:17.964Z,11.63
2019-04-03T20:51:48.578Z,12.70
2019-04-03T20:54:17.024Z,9.45
2019-04-03T20:56:57.118Z,12.50
2019-04-03T20:59:16.037Z,9.68
2019-04-03T21:01:44.552Z,9.10
2019-04-03T21:04:14.865Z,10.35
2019-04-03T21:06:43.985Z,10.45
2019-04-03T21:09:12.783Z,9.75
2019-04-03T21:11:41.475Z,12.65
2019-04-03T21:14:11.369Z,11.12
2019-04-03T21:16:40.515Z,11.85
2019-04-03T21:19:09.066Z,8.95
2019-04-03T21:21:37.786Z,10.60
2019-04-03T21:24:06.299Z,11.65
2019-04-03T21:26:37.547Z,10.78
2019-04-03T21:29:05.234Z,11.80
2019-04-03T21:31:33.885Z,14.83
2019-04-03T21:34:02.718Z,11.03
2019-04-03T21:36:31.243Z,14.20
2019-04-03T21:38:59.750Z,12.53
2019-04-03T21:41:28.252Z,16.00
2019-04-03T21:43:59.641Z,14.18
2019-04-03T21:46:27.187Z,15.38
2019-04-03T21:48:55.792Z,13.38
2019-04-03T21:51:24.406Z,14.40
2019-04-03T21:53:55.833Z,13.18
2019-04-03T21:56:23.671Z,12.47
2019-04-03T21:58:52.163Z,16.25
2019-04-03T22:01:23.375Z,18.98
2019-04-03T22:03:52.098Z,14.07
2019-04-03T22:06:20.785Z,13.58
2019-04-03T22:08:51.481Z,15.18
2019-04-03T22:11:20.204Z,13.65
2019-04-03T22:13:48.907Z,20.40
2019-04-03T22:16:19.578Z,21.82
2019-04-03T22:18:47.968Z,15.58
2019-04-03T22:21:16.460Z,17.40
2019-04-03T22:23:45.003Z,17.75
2019-04-03T22:26:13.627Z,16.73
2019-04-03T22:28:42.107Z,12.88
2019-04-03T22:33:50.993Z,18.75
2019-04-03T22:36:20.233Z,17.60
2019-04-03T22:38:48.894Z,15.95
2019-04-03T22:41:17.557Z,16.82
2019-04-03T22:43:46.651Z,16.93
2019-04-03T22:46:15.329Z,16.55
2019-04-03T22:48:44.104Z,15.38
2019-04-03T22:51:12.778Z,15.85
2019-04-03T22:53:41.683Z,20.00
2019-04-03T22:56:10.887Z,16.70
2019-04-03T22:58:39.699Z,16.50
2019-04-03T23:01:08.242Z,18.80
2019-04-03T23:03:36.793Z,16.87
2019-04-03T23:06:05.477Z,17.48
2019-04-03T23:08:34.099Z,20.08
2019-04-03T23:11:03.383Z,19.57
2019-04-03T23:13:31.943Z,19.45
2019-04-03T23:16:00.470Z,17.37
2019-04-03T23:18:29.011Z,23.92
2019-04-03T23:20:57.551Z,18.77
2019-04-03T23:23:27.610Z,23.02
2019-04-03T23:25:56.209Z,21.77
2019-04-03T23:28:24.960Z,24.55
2019-04-03T23:30:53.481Z,22.87
2019-04-03T23:33:22.273Z,20.68
2019-04-03T23:35:51.155Z,23.00
2019-04-03T23:38:20.176Z,25.60
2019-04-03T23:40:48.707Z,25.40
2019-04-03T23:43:17.261Z,23.95
2019-04-03T23:45:45.785Z,23.38
2019-04-03T23:48:17.578Z,23.98
2019-04-03T23:50:45.441Z,25.70
2019-04-03T23:53:13.971Z,25.72
2019-04-03T23:55:42.498Z,25.17
2019-04-03T23:58:11.489Z,29.52
